16 agosto 2022

Tempo Codice Tempo metereologico Temp. Vista Base nuvolosa Vento METAR/SPECI
13:55
V
25 °C 10 km+ 26.000 ft 240° 240° 12 kt METAR EHLW 161155Z AUTO 24012KT 200V270 9999 BKN260 OVC330 25/16 Q1007 BLU NOSIG
13:25
V
25 °C 10 km+ - 250° 250° 11 kt METAR EHLW 161125Z AUTO 25011KT 190V260 9999 NCD 25/18 Q1007 BLU NOSIG
12:55
V
25 °C 10 km+ - 250° 250° 12 kt METAR EHLW 161055Z AUTO 25012KT 210V290 9999 FEW022 25/19 Q1007 BLU NOSIG
12:25
V
26 °C 10 km+ - 230° 230° 9 kt METAR EHLW 161025Z AUTO 23009KT 190V260 9999 FEW020 26/19 Q1006 BLU NOSIG
11:55
V
24 °C 10 km+ - 220° 220° 9 kt METAR EHLW 160955Z AUTO 22009KT 190V250 9999 FEW350 24/19 Q1006 BLU NOSIG
11:25
V
24 °C 10 km+ - 220° 220° 10 kt METAR EHLW 160925Z AUTO 22010KT 190V250 9999 NCD 24/19 Q1006 BLU NOSIG
10:55
V
23 °C 10 km+ - 230° 230° 10 kt METAR EHLW 160855Z AUTO 23010KT 190V260 9999 NCD 23/19 Q1006 BLU NOSIG
10:25
V
22 °C 9 km - 220° 220° 12 kt METAR EHLW 160825Z AUTO 22012KT 180V250 9000 BR NCD 22/19 Q1006 BLU NOSIG
09:56
V
22 °C 9 km - 220° 220° 11 kt METAR EHLW 160756Z AUTO 22011KT 180V240 9000 BR FEW013 SCT290 22/19 Q1005 BLU TEMPO SCT013
09:55
V
22 °C 9 km - 210° 210° 11 kt METAR EHLW 160755Z AUTO 21011KT 180V240 9000 BR FEW013 SCT120 22/19 Q1005 BLU NOSIG
09:25
V
22 °C 9 km 27.000 ft 210° 210° 13 kt METAR EHLW 160725Z AUTO 21013KT 170V240 9000 BR OVC270 22/18 Q1005 BLU NOSIG
08:55
V
22 °C 8 km - 220° 220° 11 kt METAR EHLW 160655Z AUTO 22011KT 180V240 8000 BR SCT100 22/19 Q1005 BLU NOSIG
08:31
V
21 °C 9 km 26.000 ft 200° 200° 8 kt METAR EHLW 160631Z AUTO 20008KT 170V240 9000 BR BKN260 21/18 Q1005 BLU NOSIG
08:25
V
21 °C 9 km 28.000 ft 190° 190° 7 kt METAR EHLW 160625Z AUTO 19007KT 150V230 9000 BR OVC280 21/18 Q1005 BLU
08:13
V
20 °C 8 km 29.000 ft 190° 190° 7 kt METAR EHLW 160613Z AUTO 19007KT 150V230 8000 BR BKN290 20/18 Q1005 BLU
07:55
M
20 °C 7 km - 190° 190° 7 kt METAR EHLW 160555Z AUTO 19007KT 160V220 7000 BR SCT310 20/18 Q1005 WHT
07:33
M
19 °C 7 km - 190° 190° 6 kt METAR EHLW 160533Z AUTO 19006KT 160V220 7000 BR NCD 19/17 Q1005 WHT
07:26
V
19 °C 8 km - 190° 190° 6 kt METAR EHLW 160526Z AUTO 19006KT 8000 BR NCD 19/17 Q1005 BLU
07:25
M
19 °C 7 km - 190° 190° 6 kt METAR EHLW 160525Z AUTO 19006KT 7000 BR NCD 19/17 Q1005 WHT
06:55
M
19 °C 6 km - 170° 170° 6 kt METAR EHLW 160455Z AUTO 17006KT 140V200 6000 BR NCD 19/17 Q1004 WHT
06:25
M
19 °C 5 km - 160° 160° 4 kt METAR EHLW 160425Z AUTO 16004KT 5000 BR NCD 19/17 Q1004 WHT
05:55
M
19 °C 6 km - 170° 170° 4 kt METAR EHLW 160355Z AUTO 17004KT 6000 BR NCD 19/17 Q1004 WHT
05:37
M
19 °C 7 km - 170° 170° 4 kt METAR EHLW 160337Z AUTO 17004KT 150V210 7000 BR NCD 19/17 Q1004 WHT
05:25
V
20 °C 9 km - 180° 180° 4 kt METAR EHLW 160325Z AUTO 18004KT 9000 BR NCD 20/17 Q1004 BLU
04:55
V
19 °C 8 km - 180° 180° 4 kt METAR EHLW 160255Z AUTO 18004KT 160V220 8000 BR NCD 19/18 Q1004 BLU
04:38
V
20 °C 8 km - 190° 190° 5 kt METAR EHLW 160238Z AUTO 19005KT 160V220 8000 BR NCD 20/18 Q1005 BLU
04:26
M
20 °C 7 km - 180° 180° 4 kt METAR EHLW 160226Z AUTO 18004KT 7000 BR SCT340 20/18 Q1005 WHT
04:25
V
20 °C 8 km 34.000 ft 180° 180° 3 kt METAR EHLW 160225Z AUTO 18003KT 8000 BR BKN340 20/18 Q1005 BLU
03:55
V
20 °C 8 km 13.000 ft 180° 180° 4 kt METAR EHLW 160155Z AUTO 18004KT 120V210 8000 BR OVC130 20/18 Q1005 BLU
03:25
V
21 °C 10 km+ 12.000 ft 180° 180° 4 kt METAR EHLW 160125Z AUTO 18004KT 140V220 9999 OVC120 21/18 Q1005 BLU
02:55
V
21 °C 10 km+ 12.000 ft 170° 170° 5 kt METAR EHLW 160055Z AUTO 17005KT 140V200 9999 FEW015CB OVC120 21/18 Q1005 BLU
02:25
V
21 °C 10 km+ 10.000 ft 160° 160° 5 kt METAR EHLW 160025Z AUTO 16005KT 9999 SCT098 OVC100 21/18 Q1005 BLU
01:25
V
20 °C 10 km+ 11.000 ft 190° 190° 3 kt METAR EHLW 152325Z AUTO 19003KT 160V220 9999 FEW099 OVC110 20/18 Q1005 BLU
00:55
V
21 °C 10 km+ 10.000 ft 170° 170° 3 kt METAR EHLW 152255Z AUTO 17003KT 9999 OVC100 21/18 Q1005 BLU
00:25
V
21 °C 10 km+ 10.000 ft 190° 190° 4 kt METAR EHLW 152225Z AUTO 19004KT 9999 OVC100 21/18 Q1005 BLU

15 agosto 2022

Tempo Codice Tempo metereologico Temp. Vista Base nuvolosa Vento METAR/SPECI
23:55
V
20 °C 10 km+ 11.000 ft 190° 190° 3 kt METAR EHLW 152155Z AUTO 19003KT 9999 OVC110 20/18 Q1005 BLU
23:25
V
20 °C 10 km+ 13.000 ft Var Var 1 kt METAR EHLW 152125Z AUTO VRB01KT 9999 OVC130 20/17 Q1005 BLU
22:55
V
20 °C 10 km+ 13.000 ft 120° 120° 3 kt METAR EHLW 152055Z AUTO 12003KT 060V120 9999 OVC130 20/17 Q1005 BLU
22:25
V
21 °C 10 km+ 11.000 ft 220° 220° 3 kt METAR EHLW 152025Z AUTO 22003KT 9999 OVC110 21/18 Q1005 BLU
21:55
V
21 °C 10 km+ 15.000 ft 230° 230° 4 kt METAR EHLW 151955Z AUTO 23004KT 9999 OVC150 21/18 Q1005 BLU
21:25
V
21 °C 10 km+ 15.000 ft Var Var 1 kt METAR EHLW 151925Z AUTO VRB01KT 9999 OVC150 21/17 Q1005 BLU
20:55
V
22 °C 10 km+ 15.000 ft Var Var 2 kt METAR EHLW 151855Z AUTO VRB02KT 9999 OVC150 22/17 Q1004 BLU
20:25
V
22 °C 10 km+ 13.000 ft 240° 240° 5 kt METAR EHLW 151825Z AUTO 24005KT 9999 OVC130 22/18 Q1004 BLU
19:55
V
22 °C 10 km+ 12.000 ft 260° 260° 5 kt METAR EHLW 151755Z AUTO 26005KT 9999 OVC120 22/17 Q1004 BLU
19:25
V
23 °C 10 km+ 12.000 ft 270° 270° 6 kt METAR EHLW 151725Z AUTO 27006KT 9999 OVC120 23/17 Q1004 BLU
18:55
V
23 °C 10 km+ 13.000 ft 270° 270° 7 kt METAR EHLW 151655Z AUTO 27007KT 230V290 9999 OVC130 23/17 Q1004 BLU
18:25
V
23 °C 10 km+ 14.000 ft 270° 270° 8 kt METAR EHLW 151625Z AUTO 27008KT 220V300 9999 OVC140 23/17 Q1003 BLU
17:55
V
24 °C 10 km+ 12.000 ft 260° 260° 12 kt METAR EHLW 151555Z AUTO 26012KT 220V280 9999 OVC120 24/17 Q1003 BLU
17:25
V
24 °C 10 km+ 12.000 ft 260° 260° 12 kt METAR EHLW 151525Z AUTO 26012KT 9999 OVC120 24/18 Q1003 BLU
16:55
V
25 °C 10 km+ 12.000 ft 260° 260° 11 kt METAR EHLW 151455Z AUTO 26011KT 9999 OVC120 25/18 Q1003 BLU
16:25
V
26 °C 10 km+ 12.000 ft 270° 270° 11 kt METAR EHLW 151425Z AUTO 27011KT 230V290 9999 OVC120 26/17 Q1003 BLU
15:55
V
26 °C 10 km+ - 270° 270° 11 kt METAR EHLW 151355Z AUTO 27011KT 230V320 9999 FEW130 26/18 Q1003 BLU
15:25
V
26 °C 10 km+ 10.000 ft 280° 280° 7 kt METAR EHLW 151325Z AUTO 28007KT 250V320 9999 FEW051 SCT096 OVC100 26/18 Q1003 BLU TEMPO 23010G25KT 3000 TSRA SCT060CB
14:55
V
25 °C 10 km+ 10.000 ft 280° 280° 9 kt METAR EHLW 151255Z AUTO 28009KT 240V310 9999 OVC100 25/16 Q1003 BLU TEMPO 23010G25KT 3000 TSRA SCT060CB
14:25
V
25 °C 10 km+ 10.000 ft 260° 260° 10 kt METAR EHLW 151225Z AUTO 26010KT 240V310 9999 OVC100 25/16 Q1003 REDZ BLU TEMPO 23010G25KT 3000 TSRA SCT060CB
14:14
V
25 °C 10 km+ 9.800 ft 270° 270° 8 kt METAR EHLW 151214Z AUTO 27008KT 240V300 9999 DZRA FEW069 SCT075 OVC098 25/16 Q1003 BLU TEMPO 23010G25KT 3000 TSRA SCT060CB
13:55
V
25 °C 10 km+ 10.000 ft 270° 270° 9 kt METAR EHLW 151155Z AUTO 27009KT 220V300 9999 FEW090 OVC100 25/16 Q1003 BLU TEMPO 23010G25KT 3000 TSRA SCT060CB
13:25
V
26 °C 10 km+ 13.000 ft 270° 270° 9 kt METAR EHLW 151125Z AUTO 27009KT 210V290 9999 BKN130 OVC220 26/18 Q1003 BLU TEMPO 23010G25KT 3000 TSRA SCT060CB
12:55
V
26 °C 10 km+ 22.000 ft 260° 260° 9 kt METAR EHLW 151055Z AUTO 26009KT 200V310 9999 BKN220 BKN310 26/19 Q1003 BLU TEMPO 23010G25KT 3000 TSRA SCT060CB
12:25
V
27 °C 10 km+ 33.000 ft Var Var 5 kt METAR EHLW 151025Z AUTO VRB05KT 9999 OVC330 27/20 Q1002 BLU TEMPO 23010G25KT 3000 TSRA SCT060CB
12:15
V
27 °C 10 km+ 33.000 ft 230° 230° 7 kt METAR EHLW 151015Z AUTO 23007KT 200V360 9999 SCT240 OVC330 27/21 Q1002 BLU TEMPO 23010G25KT 3000 SHRA SCT060CB
11:55
V
27 °C 10 km+ 23.000 ft Var Var 2 kt METAR EHLW 150955Z AUTO VRB02KT 9999 OVC230 27/18 Q1002 BLU NOSIG
11:25
V
26 °C 10 km+ 12.000 ft Var Var 3 kt METAR EHLW 150925Z AUTO VRB03KT 9999 BKN120 OVC210 26/18 Q1002 BLU NOSIG
10:55
V
26 °C 10 km+ 19.000 ft 240° 240° 5 kt METAR EHLW 150855Z AUTO 24005KT 190V250 9999 OVC190 26/17 Q1002 BLU NOSIG
10:25
V
26 °C 10 km+ 21.000 ft 220° 220° 6 kt METAR EHLW 150825Z AUTO 22006KT 170V260 9999 OVC210 26/17 Q1002 BLU NOSIG
10:04
V
26 °C 10 km+ 36.000 ft 220° 220° 5 kt METAR EHLW 150804Z AUTO 22005KT 180V260 9999 BKN360 26/18 Q1002 BLU NOSIG
09:55
V
26 °C 10 km+ 32.000 ft 190° 190° 4 kt METAR EHLW 150755Z AUTO 19004KT 170V250 9999 OVC320 26/16 Q1002 BLU NOSIG
09:25
V
25 °C 10 km+ 30.000 ft Var Var 2 kt METAR EHLW 150725Z AUTO VRB02KT 9999 OVC300 25/17 Q1002 BLU NOSIG
08:55
V
23 °C 10 km+ 21.000 ft 110° 110° 4 kt METAR EHLW 150655Z AUTO 11004KT 040V180 9999 OVC210 23/18 Q1002 BLU NOSIG
08:25
V
21 °C 10 km+ 22.000 ft Var Var 1 kt METAR EHLW 150625Z AUTO VRB01KT 9999 OVC220 21/18 Q1002 BLU NOSIG
07:59
V
20 °C 10 km+ 23.000 ft Var Var 1 kt METAR EHLW 150559Z AUTO VRB01KT 9999 OVC230 20/18 Q1002 BLU NOSIG
07:58
V
20 °C 10 km+ 23.000 ft Var Var 1 kt METAR EHLW 150558Z AUTO VRB01KT 9999 OVC230 20/18 Q1002 BLU NOSIG
07:55
V
20 °C 10 km+ 22.000 ft Var Var 2 kt METAR EHLW 150555Z AUTO VRB02KT 9999 OVC220 20/18 Q1002 BLU
07:25
V
19 °C 10 km+ 23.000 ft 070° 070° 1 kt METAR EHLW 150525Z AUTO 07001KT 9999 OVC230 19/17 Q1002 BLU
06:55
V
19 °C 10 km+ 14.000 ft 060° 060° 4 kt METAR EHLW 150455Z AUTO 06004KT 360V110 9999 OVC140 19/17 Q1002 BLU
06:25
V
20 °C 10 km+ 10.000 ft Var Var 2 kt METAR EHLW 150425Z AUTO VRB02KT 9999 BKN100 BKN250 BKN340 20/16 Q1002 BLU
05:55
V
18 °C 10 km+ 24.000 ft Var Var 5 kt METAR EHLW 150355Z AUTO VRB05KT 9999 OVC240 18/16 Q1002 BLU
05:25
V
19 °C 10 km+ 12.000 ft 070° 070° 3 kt METAR EHLW 150325Z AUTO 07003KT 020V160 9999 OVC120 19/17 Q1002 BLU
04:55
V
19 °C 10 km+ 19.000 ft 080° 080° 5 kt METAR EHLW 150255Z AUTO 08005KT 360V170 9999 BKN190 OVC240 19/17 Q1003 BLU
04:25
V
19 °C 10 km+ 24.000 ft 080° 080° 4 kt METAR EHLW 150225Z AUTO 08004KT 010V140 9999 OVC240 19/17 Q1003 BLU
03:55
V
19 °C 10 km+ 37.000 ft Var Var 2 kt METAR EHLW 150155Z AUTO VRB02KT 9999 OVC370 19/17 Q1003 BLU
03:25
V
19 °C 10 km+ - 080° 080° 4 kt METAR EHLW 150125Z AUTO 08004KT 070V140 9999 NCD 19/17 Q1003 BLU
02:55
V
19 °C 10 km+ 28.000 ft 040° 040° 3 kt METAR EHLW 150055Z AUTO 04003KT 9999 BKN280 19/18 Q1003 BLU
02:40
V
18 °C 10 km+ 28.000 ft 040° 040° 3 kt METAR EHLW 150040Z AUTO 04003KT 010V070 9999 OVC280 18/18 Q1003 BLU
02:35
M
19 °C 5 km 28.000 ft Var Var 2 kt METAR EHLW 150035Z AUTO VRB02KT 5000 BR FEW087 BKN280 19/19 Q1003 WHT
02:25
V
19 °C 9 km 8.800 ft Var Var 2 kt METAR EHLW 150025Z AUTO VRB02KT 9000 BR SCT083 BKN088 BKN094 19/18 Q1004 BLU
01:55
V
19 °C 10 km+ 28.000 ft 020° 020° 1 kt METAR EHLW 142355Z AUTO 02001KT 9999 OVC280 19/19 Q1004 BLU
01:25
V
20 °C 10 km+ 33.000 ft Var Var 2 kt METAR EHLW 142325Z AUTO VRB02KT 9999 OVC330 20/19 Q1004 BLU
00:55
V
19 °C 10 km+ 35.000 ft 010° 010° 2 kt METAR EHLW 142255Z AUTO 01002KT 9999 OVC350 19/18 Q1004 BLU
00:25
V
20 °C 10 km+ 9.600 ft Var Var 2 kt METAR EHLW 142225Z AUTO VRB02KT 9999 BKN096 OVC100 20/19 Q1004 BLU

14 agosto 2022

Tempo Codice Tempo metereologico Temp. Vista Base nuvolosa Vento METAR/SPECI
23:55
V
20 °C 10 km+ 9.800 ft Var Var 1 kt METAR EHLW 142155Z AUTO VRB01KT 9999 OVC098 20/19 Q1005 BLU
23:25
V
21 °C 10 km+ 30.000 ft 070° 070° 5 kt METAR EHLW 142125Z AUTO 07005KT 360V170 9999 OVC300 21/20 Q1005 BLU
22:55
V
21 °C 10 km+ 30.000 ft 050° 050° 4 kt METAR EHLW 142055Z AUTO 05004KT 360V100 9999 OVC300 21/20 Q1005 BLU
22:25
V
21 °C 10 km+ 33.000 ft 060° 060° 5 kt METAR EHLW 142025Z AUTO 06005KT 350V120 9999 SCT083 OVC330 21/19 Q1005 BLU
21:55
V
22 °C 10 km+ 29.000 ft 060° 060° 6 kt METAR EHLW 141955Z AUTO 06006KT 340V130 9999 OVC290 22/20 Q1005 BLU
21:25
V
23 °C 10 km+ 29.000 ft 060° 060° 5 kt METAR EHLW 141925Z AUTO 06005KT 350V140 9999 OVC290 23/20 Q1005 BLU
20:55
V
24 °C 10 km+ 29.000 ft 060° 060° 6 kt METAR EHLW 141855Z AUTO 06006KT 360V090 9999 OVC290 24/20 Q1005 BLU
20:25
V
25 °C 10 km+ 29.000 ft 050° 050° 6 kt METAR EHLW 141825Z AUTO 05006KT 010V080 9999 OVC290 25/20 Q1005 BLU
19:55
V
26 °C 10 km+ 30.000 ft 350° 350° 5 kt METAR EHLW 141755Z AUTO 35005KT 340V040 9999 OVC300 26/19 Q1005 BLU
19:25
V
29 °C 10 km+ 30.000 ft Var Var 2 kt METAR EHLW 141725Z AUTO VRB02KT 9999 FEW082 OVC300 29/16 Q1005 BLU
18:55
V
29 °C 10 km+ 33.000 ft 180° 180° 4 kt METAR EHLW 141655Z AUTO 18004KT 100V200 9999 OVC330 29/15 Q1006 BLU
18:25
V
30 °C 10 km+ 33.000 ft 180° 180° 3 kt METAR EHLW 141625Z AUTO 18003KT 090V150 9999 OVC330 30/15 Q1006 BLU
17:55
V
30 °C 10 km+ 35.000 ft Var Var 4 kt METAR EHLW 141555Z AUTO VRB04KT 9999 FEW061 BKN350 30/14 Q1006 BLU
17:25
V
30 °C 10 km+ 6.000 ft Var Var 2 kt METAR EHLW 141525Z AUTO VRB02KT 9999 BKN060 30/15 Q1006 BLU
16:55
V
30 °C 10 km+ 39.000 ft 150° 150° 6 kt METAR EHLW 141455Z AUTO 15006KT 9999 FEW059 BKN390 30/15 Q1006 BLU
16:25
V
29 °C 10 km+ 38.000 ft Var Var 7 kt METAR EHLW 141425Z AUTO VRB07KT 9999 OVC380 29/15 Q1007 BLU
15:55
V
30 °C 10 km+ 38.000 ft 150° 150° 6 kt METAR EHLW 141355Z AUTO 15006KT 080V160 9999 SCT055 BKN380 30/16 Q1007 BLU
15:25
V
29 °C 10 km+ - Var Var 6 kt METAR EHLW 141325Z AUTO VRB06KT 9999 FEW380 29/16 Q1007 BLU
14:55
V
30 °C 10 km+ 5.400 ft 120° 120° 6 - 17 kt METAR EHLW 141255Z AUTO 12006G17KT 010V170 9999 BKN054 30/16 Q1008 BLU
14:25
V
29 °C 10 km+ - Var Var 8 kt METAR EHLW 141225Z AUTO VRB08KT 9999 SCT053 29/16 Q1008 BLU
13:55
V
28 °C 10 km+ - 110° 110° 6 kt METAR EHLW 141155Z AUTO 11006KT 010V170 9999 SCT051 28/16 Q1008 BLU
Dati più vecchi

Noi e le terze parti seguiamo il tuo comportamento in internet sul nostro sito web con i cookie. Se continui, riteniamo che tu sia d'accordo con la nostra politica sui cookie. Per saperne di più